Time;durP1;ratioP1;P1;durP2;ratioP2;P2;SDS_P1;SDS_P2;PMS_P1;PMS_P2;Temp;Humidity;BMP_temperature;BMP_pressure;BME280_temperature;BME280_humidity;BME280_pressure;Samples;Min_cycle;Max_cycle;Signal;HPM_P1;HPM_P2
2021/11/20 00:02:22;;;;;;;4.78;1.50;;;10.10;99.90;;;;;;4988470;28;20137;-62
2021/11/20 00:04:50;;;;;;;7.13;1.15;;;10.10;99.90;;;;;;4988305;28;20526;-67
2021/11/20 00:07:18;;;;;;;5.15;1.83;;;10.10;99.90;;;;;;4990008;28;20043;-63
2021/11/20 00:09:47;;;;;;;5.65;1.17;;;10.10;99.90;;;;;;4986929;28;20038;-63
2021/11/20 00:12:21;;;;;;;2.13;0.93;;;10.10;99.90;;;;;;4982662;28;20117;-67
2021/11/20 00:14:49;;;;;;;6.90;1.23;;;10.00;99.90;;;;;;4987397;28;20358;-62
2021/11/20 00:17:16;;;;;;;4.95;1.73;;;10.00;99.90;;;;;;4988969;28;20404;-64
2021/11/20 00:19:45;;;;;;;4.47;1.02;;;9.90;99.90;;;;;;4989444;28;20049;-62
2021/11/20 00:22:20;;;;;;;4.20;1.45;;;9.90;99.90;;;;;;4987955;28;20392;-72
2021/11/20 00:24:52;;;;;;;4.25;0.60;;;9.90;99.90;;;;;;4990829;28;20565;-62
2021/11/20 00:27:26;;;;;;;1.80;0.70;;;9.80;99.90;;;;;;4985998;28;20511;-66
2021/11/20 00:32:32;;;;;;;4.00;1.30;;;9.80;99.90;;;;;;5001297;28;20137;-63
2021/11/20 00:35:07;;;;;;;2.15;0.55;;;9.80;99.90;;;;;;4988393;28;20066;-64
2021/11/20 00:37:36;;;;;;;4.35;1.33;;;9.80;99.90;;;;;;4987576;28;20046;-64
2021/11/20 00:40:06;;;;;;;5.82;1.30;;;9.70;99.90;;;;;;5002762;28;20120;-63
2021/11/20 00:42:33;;;;;;;10.43;2.88;;;9.70;99.90;;;;;;4985998;28;20052;-64
2021/11/20 00:45:00;;;;;;;5.88;0.80;;;9.70;99.90;;;;;;4986943;28;20517;-64
2021/11/20 00:47:27;;;;;;;3.47;0.63;;;9.60;99.90;;;;;;4988556;28;20077;-62
2021/11/20 00:49:57;;;;;;;6.55;1.67;;;9.60;99.90;;;;;;4988490;28;20342;-66
2021/11/20 00:52:25;;;;;;;3.65;0.98;;;9.60;99.90;;;;;;4986249;28;20511;-62
2021/11/20 00:54:52;;;;;;;1.98;1.13;;;9.50;99.90;;;;;;4986121;28;20043;-67
2021/11/20 00:57:19;;;;;;;3.92;1.15;;;9.50;99.90;;;;;;4988309;28;20045;-72
2021/11/20 00:59:46;;;;;;;4.47;1.85;;;9.50;99.90;;;;;;5017214;28;20096;-65
2021/11/20 01:02:18;;;;;;;4.35;0.80;;;9.50;99.90;;;;;;5003545;28;20053;-69
2021/11/20 01:04:45;;;;;;;2.67;0.98;;;9.40;99.90;;;;;;4985832;28;20046;-63
2021/11/20 01:07:12;;;;;;;5.38;1.50;;;9.40;99.90;;;;;;4988746;28;20050;-63
2021/11/20 01:09:44;;;;;;;9.20;1.92;;;9.30;99.90;;;;;;4987305;28;20069;-63
2021/11/20 01:12:22;;;;;;;6.22;2.15;;;9.30;99.90;;;;;;4984048;28;20088;-66
2021/11/20 01:14:51;;;;;;;2.78;0.85;;;9.30;99.90;;;;;;5017285;28;20035;-68
2021/11/20 01:17:21;;;;;;;2.70;0.70;;;9.30;99.90;;;;;;5016587;28;20496;-63
2021/11/20 01:19:49;;;;;;;2.30;0.30;;;9.20;99.90;;;;;;4987379;28;20050;-63
2021/11/20 01:22:36;;;;;;;5.82;1.17;;;9.20;99.90;;;;;;5012009;28;20061;-70
2021/11/20 01:25:25;;;;;;;2.92;0.85;;;9.20;99.90;;;;;;4977397;28;20066;-62
2021/11/20 01:28:05;;;;;;;14.43;1.45;;;9.10;99.90;;;;;;5016653;28;20580;-63
2021/11/20 01:30:53;;;;;;;;;;;9.10;99.90;;;;;;4984982;28;20082;-62
2021/11/20 01:33:34;;;;;;;6.93;0.65;;;9.10;99.90;;;;;;4985418;28;20156;-62
2021/11/20 01:36:03;;;;;;;5.63;1.58;;;9.10;99.90;;;;;;4996829;28;20058;-62
2021/11/20 01:38:30;;;;;;;2.88;1.40;;;9.10;99.90;;;;;;4986768;28;20065;-63
2021/11/20 01:41:09;;;;;;;3.83;0.60;;;9.00;99.90;;;;;;4999535;28;20039;-63
2021/11/20 01:43:48;;;;;;;3.60;0.73;;;9.00;99.90;;;;;;4985166;28;20077;-69
2021/11/20 01:46:22;;;;;;;2.83;1.05;;;9.00;99.90;;;;;;4983719;28;20042;-66
2021/11/20 01:49:09;;;;;;;5.75;1.05;;;8.90;99.90;;;;;;4985067;28;20393;-66
2021/11/20 01:51:45;;;;;;;2.13;0.90;;;9.00;99.90;;;;;;4992538;28;20377;-68
2021/11/20 01:54:15;;;;;;;3.70;0.93;;;8.90;99.90;;;;;;5018628;28;20054;-67
2021/11/20 01:57:42;;;;;;;2.30;0.35;;;8.90;99.90;;;;;;5013271;28;20343;-65
2021/11/20 02:00:25;;;;;;;4.18;0.52;;;8.90;99.90;;;;;;4926291;29;20099;-68
2021/11/20 02:03:12;;;;;;;6.93;1.42;;;8.90;99.90;;;;;;4980477;28;20038;-68
2021/11/20 02:06:10;;;;;;;1.80;0.80;;;8.80;99.90;;;;;;4983945;28;20057;-69
2021/11/20 02:08:56;;;;;;;;;;;8.80;99.90;;;;;;4983446;28;20054;-65
2021/11/20 02:11:56;;;;;;;1.55;0.63;;;8.80;99.90;;;;;;4984276;28;20391;-64
2021/11/20 02:14:26;;;;;;;4.43;1.65;;;8.80;99.90;;;;;;4976224;28;20046;-64
2021/11/20 02:17:23;;;;;;;3.75;0.70;;;8.70;99.90;;;;;;5000398;28;20058;-62
2021/11/20 02:19:55;;;;;;;3.25;0.80;;;8.70;99.90;;;;;;4999164;28;20034;-65
2021/11/20 02:22:28;;;;;;;2.60;0.40;;;8.70;99.90;;;;;;4979636;28;20071;-65
2021/11/20 02:24:55;;;;;;;3.17;1.45;;;8.70;99.90;;;;;;4982109;28;20258;-68
2021/11/20 02:27:52;;;;;;;2.88;0.50;;;8.70;99.90;;;;;;4984051;28;20058;-64
2021/11/20 02:30:41;;;;;;;7.32;0.85;;;8.70;99.90;;;;;;4983093;28;20038;-64
2021/11/20 02:33:18;;;;;;;2.60;0.67;;;8.70;99.90;;;;;;5016916;28;20054;-63
2021/11/20 02:35:51;;;;;;;1.58;0.70;;;8.70;99.90;;;;;;5012276;28;20042;-63
2021/11/20 02:38:28;;;;;;;1.17;0.68;;;8.60;99.90;;;;;;4999950;28;20060;-64
2021/11/20 02:40:57;;;;;;;1.17;0.65;;;8.60;99.90;;;;;;4986992;28;20592;-63
2021/11/20 02:43:26;;;;;;;1.50;0.40;;;8.60;99.90;;;;;;5019038;28;20144;-68
2021/11/20 02:46:04;;;;;;;1.95;0.70;;;8.60;99.90;;;;;;5004273;28;20041;-65
2021/11/20 02:48:32;;;;;;;2.03;0.70;;;8.60;99.90;;;;;;5009655;28;20074;-64
2021/11/20 02:51:13;;;;;;;2.10;0.70;;;8.60;99.90;;;;;;5003255;28;20133;-66
2021/11/20 02:53:44;;;;;;;7.43;0.40;;;8.60;99.90;;;;;;5001548;28;20042;-69
2021/11/20 02:56:15;;;;;;;5.25;0.63;;;8.60;99.90;;;;;;5003747;28;20488;-72
2021/11/20 02:58:42;;;;;;;2.75;0.50;;;8.60;99.90;;;;;;5018584;28;20407;-64
2021/11/20 03:01:19;;;;;;;2.17;0.68;;;8.60;99.90;;;;;;5002911;28;20438;-65
2021/11/20 03:03:47;;;;;;;1.17;0.30;;;8.60;99.90;;;;;;4984239;28;20046;-64
2021/11/20 03:06:14;;;;;;;2.67;0.68;;;8.60;99.90;;;;;;5002528;28;20034;-67
2021/11/20 03:08:43;;;;;;;2.15;0.50;;;8.60;99.90;;;;;;5002385;28;20046;-63
2021/11/20 03:11:15;;;;;;;2.15;0.50;;;8.50;99.90;;;;;;5012770;28;20056;-69
2021/11/20 03:13:48;;;;;;;2.30;0.50;;;8.60;99.90;;;;;;4984470;28;20506;-65
2021/11/20 03:16:28;;;;;;;1.55;0.60;;;8.60;99.90;;;;;;4995933;28;20160;-62
2021/11/20 03:18:55;;;;;;;1.52;1.27;;;8.50;99.90;;;;;;4984407;28;20400;-62
2021/11/20 03:21:22;;;;;;;3.38;0.63;;;8.50;99.90;;;;;;4986889;28;20186;-62
2021/11/20 03:23:53;;;;;;;2.30;1.02;;;8.50;99.90;;;;;;4998764;28;20137;-64
2021/11/20 03:26:20;;;;;;;2.53;0.90;;;8.40;99.90;;;;;;5017294;28;20129;-63
2021/11/20 03:28:48;;;;;;;2.83;0.68;;;8.40;99.90;;;;;;5016506;28;20575;-65
2021/11/20 03:31:15;;;;;;;3.47;0.88;;;8.40;99.90;;;;;;4987471;28;20073;-65
2021/11/20 03:33:42;;;;;;;1.00;0.50;;;8.40;99.90;;;;;;4983062;28;20142;-65
2021/11/20 03:36:09;;;;;;;2.45;0.52;;;8.40;99.90;;;;;;4986009;28;20042;-72
2021/11/20 03:38:36;;;;;;;3.17;0.60;;;8.40;99.90;;;;;;5002225;28;20054;-66
2021/11/20 03:41:07;;;;;;;3.33;0.75;;;8.30;99.90;;;;;;4988061;28;20092;-66
2021/11/20 03:43:35;;;;;;;1.75;0.60;;;8.30;99.90;;;;;;4997392;28;20101;-66
2021/11/20 03:46:03;;;;;;;1.75;0.65;;;8.30;99.90;;;;;;4998677;28;20050;-63
2021/11/20 03:48:32;;;;;;;0.47;0.40;;;8.30;99.90;;;;;;4985676;28;20592;-65
2021/11/20 03:51:00;;;;;;;1.98;0.55;;;8.30;99.90;;;;;;4985052;28;20054;-64
2021/11/20 03:53:29;;;;;;;1.92;0.60;;;8.30;99.90;;;;;;4986749;28;20077;-66
2021/11/20 03:55:57;;;;;;;2.25;0.88;;;8.20;99.90;;;;;;5000648;28;20049;-65
2021/11/20 03:58:24;;;;;;;3.53;1.00;;;8.20;99.90;;;;;;4979546;28;20493;-67
2021/11/20 04:01:02;;;;;;;5.13;0.50;;;8.20;99.90;;;;;;4984505;28;20392;-63
2021/11/20 04:03:32;;;;;;;1.13;0.65;;;8.20;99.90;;;;;;4987377;28;20053;-66
2021/11/20 04:05:59;;;;;;;4.00;0.57;;;8.20;99.90;;;;;;4985142;28;20046;-63
2021/11/20 04:08:29;;;;;;;3.97;0.63;;;8.20;99.90;;;;;;5001762;28;20096;-65
2021/11/20 04:11:05;;;;;;;1.55;0.65;;;8.20;99.90;;;;;;5016315;28;20412;-62
2021/11/20 04:13:35;;;;;;;2.17;0.45;;;8.20;99.90;;;;;;4984108;28;20379;-63
2021/11/20 04:16:04;;;;;;;0.90;0.28;;;8.20;99.90;;;;;;5002942;28;20046;-63
2021/11/20 04:18:32;;;;;;;1.38;0.80;;;8.20;99.90;;;;;;5000006;28;20237;-62
2021/11/20 04:21:00;;;;;;;0.60;0.40;;;8.20;99.90;;;;;;4988022;28;20101;-63
2021/11/20 04:23:29;;;;;;;0.50;0.40;;;8.20;99.90;;;;;;4984836;28;20054;-71
2021/11/20 04:25:56;;;;;;;2.97;0.52;;;8.20;99.90;;;;;;4986141;28;20054;-64
2021/11/20 04:28:23;;;;;;;3.60;0.35;;;8.20;99.90;;;;;;4983361;28;20153;-63
2021/11/20 04:31:03;;;;;;;1.10;0.43;;;8.20;99.90;;;;;;4996751;28;20116;-64
2021/11/20 04:33:30;;;;;;;1.60;0.28;;;8.20;99.90;;;;;;4985546;28;20136;-64
2021/11/20 04:35:58;;;;;;;3.13;0.65;;;8.20;99.90;;;;;;5002582;28;20061;-67
2021/11/20 04:38:25;;;;;;;4.32;0.65;;;8.20;99.90;;;;;;4985047;28;20042;-63
2021/11/20 04:40:52;;;;;;;5.82;0.60;;;8.10;99.90;;;;;;4984979;28;20129;-66
2021/11/20 04:43:19;;;;;;;0.57;0.25;;;8.10;99.90;;;;;;4983623;28;20089;-67
2021/11/20 04:45:48;;;;;;;1.98;0.25;;;8.10;99.90;;;;;;4985693;28;20142;-65
2021/11/20 04:48:16;;;;;;;1.63;0.43;;;8.10;99.90;;;;;;4985811;28;20508;-65
2021/11/20 04:50:53;;;;;;;2.33;0.60;;;8.10;99.90;;;;;;4992024;28;20053;-64
2021/11/20 04:53:20;;;;;;;1.73;0.20;;;8.10;99.90;;;;;;4989335;28;20058;-62
2021/11/20 04:55:48;;;;;;;2.92;0.68;;;8.00;99.90;;;;;;4983377;28;20096;-68
2021/11/20 04:58:16;;;;;;;3.40;0.55;;;8.10;99.90;;;;;;4986930;28;20817;-65
2021/11/20 05:00:50;;;;;;;1.58;0.57;;;8.10;99.90;;;;;;4997462;28;20057;-63
2021/11/20 05:03:23;;;;;;;3.90;0.40;;;8.10;99.90;;;;;;4983691;28;20156;-69
2021/11/20 05:05:52;;;;;;;1.70;0.40;;;8.10;99.90;;;;;;5001413;28;20047;-67
2021/11/20 05:08:20;;;;;;;3.80;0.63;;;8.00;99.90;;;;;;4990391;28;20050;-65
2021/11/20 05:10:52;;;;;;;0.98;0.40;;;8.10;99.90;;;;;;4997309;28;20117;-65
2021/11/20 05:13:22;;;;;;;1.80;0.60;;;8.10;99.90;;;;;;4998363;28;20046;-66
2021/11/20 05:15:52;;;;;;;2.85;0.70;;;8.00;99.90;;;;;;4981253;28;20061;-64
2021/11/20 05:18:19;;;;;;;0.85;0.38;;;8.00;99.90;;;;;;4983459;28;20499;-64
2021/11/20 05:21:02;;;;;;;2.90;0.65;;;8.00;99.90;;;;;;4983615;28;20055;-63
2021/11/20 05:23:36;;;;;;;6.88;1.50;;;8.10;99.90;;;;;;4997229;28;20050;-63
2021/11/20 05:26:05;;;;;;;;;;;8.10;99.90;;;;;;5013527;28;20141;-63
2021/11/20 05:28:32;;;;;;;2.58;0.68;;;8.00;99.90;;;;;;4997552;28;19930;-64
2021/11/20 05:31:00;;;;;;;3.40;0.85;;;8.00;99.90;;;;;;4984890;28;20065;-64
2021/11/20 05:33:39;;;;;;;6.13;2.33;;;8.10;99.90;;;;;;4982519;28;20524;-63
2021/11/20 05:36:10;;;;;;;2.25;1.40;;;8.00;99.90;;;;;;5016750;28;20047;-64
2021/11/20 05:38:38;;;;;;;2.53;1.13;;;8.00;99.90;;;;;;4982933;28;20440;-66
2021/11/20 05:41:06;;;;;;;3.42;0.43;;;8.00;99.90;;;;;;4996095;28;20047;-64
2021/11/20 05:43:45;;;;;;;2.13;0.57;;;8.00;99.90;;;;;;4982721;28;20049;-64
2021/11/20 05:46:26;;;;;;;0.35;0.35;;;8.00;99.90;;;;;;5015404;28;20053;-63
2021/11/20 05:48:55;;;;;;;0.95;0.25;;;8.00;99.90;;;;;;4998519;28;20441;-64
2021/11/20 05:51:23;;;;;;;4.03;0.50;;;8.00;99.90;;;;;;4980448;28;20065;-69
2021/11/20 05:53:50;;;;;;;2.47;0.40;;;8.00;99.90;;;;;;4977392;28;20054;-70
2021/11/20 05:56:19;;;;;;;1.42;0.60;;;8.00;99.90;;;;;;4997154;28;20050;-67
2021/11/20 05:59:08;;;;;;;2.65;0.25;;;8.00;99.90;;;;;;4983570;28;20038;-69
2021/11/20 06:01:35;;;;;;;6.60;0.60;;;8.00;99.90;;;;;;4998890;28;20045;-65
2021/11/20 06:04:02;;;;;;;1.88;0.40;;;8.00;99.90;;;;;;4984546;28;20043;-63
2021/11/20 06:06:30;;;;;;;3.60;0.40;;;8.00;99.90;;;;;;4981377;28;20452;-67
2021/11/20 06:08:57;;;;;;;1.08;0.30;;;8.00;99.90;;;;;;4999972;28;20088;-65
2021/11/20 06:11:28;;;;;;;2.10;0.47;;;8.00;99.90;;;;;;4995090;28;20054;-68
2021/11/20 06:13:55;;;;;;;1.45;0.43;;;8.00;99.90;;;;;;5014700;28;20063;-66
2021/11/20 06:16:34;;;;;;;0.85;0.63;;;8.00;99.90;;;;;;4996731;28;20046;-63
2021/11/20 06:19:03;;;;;;;2.70;0.30;;;8.00;99.90;;;;;;4995964;28;20058;-67
2021/11/20 06:21:30;;;;;;;2.55;0.80;;;8.00;99.90;;;;;;4984525;28;20074;-63
2021/11/20 06:24:00;;;;;;;2.33;0.68;;;8.00;99.90;;;;;;4982383;28;20069;-62
2021/11/20 06:26:27;;;;;;;5.05;0.80;;;8.00;99.90;;;;;;4982154;28;20054;-71
2021/11/20 06:28:54;;;;;;;1.92;0.32;;;8.00;99.90;;;;;;4986263;28;20712;-64
2021/11/20 06:31:23;;;;;;;2.47;0.52;;;8.00;99.90;;;;;;4983420;28;20057;-64
2021/11/20 06:34:08;;;;;;;4.93;0.70;;;8.10;99.90;;;;;;5014998;28;20594;-65
2021/11/20 06:36:59;;;;;;;3.00;0.63;;;8.10;99.90;;;;;;4980060;28;20046;-68
2021/11/20 06:39:41;;;;;;;0.82;0.40;;;8.10;99.90;;;;;;4999678;28;20042;-70
2021/11/20 06:42:08;;;;;;;3.33;0.95;;;8.10;99.90;;;;;;4998277;28;20058;-67
2021/11/20 06:44:37;;;;;;;0.73;0.32;;;8.10;99.90;;;;;;4999690;28;20116;-64
2021/11/20 06:47:04;;;;;;;2.05;0.30;;;8.10;99.90;;;;;;4982915;28;20558;-63
2021/11/20 06:49:32;;;;;;;3.78;0.40;;;8.10;99.90;;;;;;4981687;28;20121;-66
2021/11/20 06:52:00;;;;;;;4.35;1.70;;;8.10;99.90;;;;;;4999125;28;20153;-64
2021/11/20 06:54:48;;;;;;;0.60;0.30;;;8.00;99.90;;;;;;4982578;28;20057;-63
2021/11/20 07:00:30;;;;;;;0.80;0.50;;;8.00;99.90;;;;;;5013831;28;20062;-63
2021/11/20 07:03:08;;;;;;;4.07;0.82;;;8.10;99.90;;;;;;4978524;28;20090;-64
2021/11/20 07:05:40;;;;;;;1.43;0.97;;;8.10;99.90;;;;;;4979087;28;20077;-67
2021/11/20 07:08:10;;;;;;;6.13;1.90;;;8.00;99.90;;;;;;4978899;28;20042;-63
2021/11/20 07:10:38;;;;;;;0.75;0.20;;;8.00;99.90;;;;;;4978604;28;20043;-68
2021/11/20 07:13:05;;;;;;;1.75;0.30;;;8.00;99.90;;;;;;4980898;28;20042;-68
2021/11/20 07:15:33;;;;;;;0.40;0.35;;;8.00;99.90;;;;;;4982258;28;20268;-70
2021/11/20 07:18:00;;;;;;;1.08;0.40;;;8.00;99.90;;;;;;4994636;28;20058;-69
2021/11/20 07:20:54;;;;;;;1.13;0.60;;;8.00;99.90;;;;;;4979378;28;20058;-63
2021/11/20 07:23:28;;;;;;;0.82;0.40;;;8.10;99.90;;;;;;4979840;28;20070;-64
2021/11/20 07:25:57;;;;;;;2.15;0.43;;;8.00;99.90;;;;;;4997057;28;20046;-63
2021/11/20 07:28:26;;;;;;;1.60;0.28;;;8.00;99.90;;;;;;4993656;28;20078;-64
2021/11/20 07:30:53;;;;;;;3.75;0.60;;;8.00;99.90;;;;;;4999114;28;20042;-62
2021/11/20 07:33:21;;;;;;;1.25;0.40;;;8.00;99.90;;;;;;4985083;28;20133;-63
2021/11/20 07:35:52;;;;;;;3.60;1.25;;;8.00;99.90;;;;;;4999669;28;20058;-66
2021/11/20 07:38:21;;;;;;;;;;;8.00;99.90;;;;;;5015268;28;20069;-66
2021/11/20 07:40:48;;;;;;;1.20;0.35;;;8.00;99.90;;;;;;4983781;28;19998;-65
2021/11/20 07:43:15;;;;;;;1.50;0.70;;;8.10;99.90;;;;;;4983253;28;20879;-65
2021/11/20 07:46:00;;;;;;;2.88;1.05;;;8.10;99.90;;;;;;4984296;28;20062;-62
2021/11/20 07:48:29;;;;;;;0.80;0.32;;;8.10;99.90;;;;;;4984642;28;20038;-65
2021/11/20 07:50:59;;;;;;;1.08;0.35;;;8.10;99.90;;;;;;4980726;28;20719;-65
2021/11/20 07:53:37;;;;;;;3.70;0.35;;;8.00;99.90;;;;;;4982495;28;20049;-65
2021/11/20 07:56:06;;;;;;;2.42;0.60;;;8.10;99.90;;;;;;4983242;28;20043;-63
2021/11/20 07:58:34;;;;;;;1.38;0.40;;;8.10;99.90;;;;;;4982646;28;20043;-70
2021/11/20 08:01:04;;;;;;;1.60;0.50;;;8.10;99.90;;;;;;4998773;28;20116;-69
2021/11/20 08:03:35;;;;;;;3.03;0.30;;;8.10;99.90;;;;;;4978546;28;20056;-65
2021/11/20 08:06:19;;;;;;;1.95;0.90;;;8.10;99.90;;;;;;4984094;28;20053;-74
2021/11/20 08:09:09;;;;;;;5.72;0.20;;;8.10;99.90;;;;;;4970939;28;20053;-68
2021/11/20 08:11:54;;;;;;;0.63;0.43;;;8.10;99.90;;;;;;4982081;28;20188;-67
2021/11/20 08:14:22;;;;;;;1.85;0.40;;;8.10;99.90;;;;;;4980866;28;20058;-65
2021/11/20 08:17:13;;;;;;;1.00;0.35;;;8.20;99.90;;;;;;4985020;28;20050;-64
2021/11/20 08:20:16;;;;;;;1.85;0.25;;;8.20;99.90;;;;;;4983652;28;20125;-69
2021/11/20 08:23:09;;;;;;;4.13;0.70;;;8.20;99.90;;;;;;4986249;28;20055;-67
2021/11/20 08:25:38;;;;;;;1.05;0.30;;;8.20;99.90;;;;;;4981599;28;20043;-64
2021/11/20 08:28:08;;;;;;;1.80;0.32;;;8.20;99.90;;;;;;4983402;28;20085;-64
2021/11/20 08:30:36;;;;;;;1.48;0.50;;;8.20;99.90;;;;;;4983177;28;20049;-64
2021/11/20 08:33:03;;;;;;;2.15;1.17;;;8.20;99.90;;;;;;4985665;28;20034;-63
2021/11/20 08:35:55;;;;;;;0.82;0.32;;;8.20;99.90;;;;;;4983935;28;20056;-64
2021/11/20 08:38:40;;;;;;;0.55;0.20;;;8.20;99.90;;;;;;4995461;28;20046;-65
2021/11/20 08:41:10;;;;;;;1.85;0.47;;;8.20;99.90;;;;;;4985049;28;20043;-65
2021/11/20 08:43:41;;;;;;;0.70;0.30;;;8.20;99.90;;;;;;4997293;28;20050;-67
2021/11/20 08:46:23;;;;;;;3.60;0.57;;;8.20;99.90;;;;;;5014905;28;20042;-64
2021/11/20 08:48:51;;;;;;;1.33;0.40;;;8.20;99.90;;;;;;4984696;28;20069;-65
2021/11/20 08:51:21;;;;;;;1.95;0.40;;;8.20;99.90;;;;;;4984682;28;20853;-69
2021/11/20 08:53:50;;;;;;;;;;;8.20;99.90;;;;;;4982827;28;20046;-67
2021/11/20 08:56:19;;;;;;;3.17;1.13;;;8.10;99.90;;;;;;4981659;28;19928;-68
2021/11/20 08:59:05;;;;;;;1.88;0.50;;;8.10;99.90;;;;;;5012573;28;20125;-64
2021/11/20 09:02:02;;;;;;;2.53;0.45;;;8.20;99.90;;;;;;4978504;28;20061;-64
2021/11/20 09:04:49;;;;;;;3.05;0.77;;;8.20;99.90;;;;;;4998198;28;20046;-69
2021/11/20 09:07:26;;;;;;;1.88;0.43;;;8.20;99.90;;;;;;4979833;28;20045;-67
2021/11/20 09:10:17;;;;;;;5.05;1.00;;;8.20;99.90;;;;;;4979387;28;20056;-68
2021/11/20 09:12:47;;;;;;;;;;;8.20;99.90;;;;;;4994149;28;20053;-72
2021/11/20 09:15:28;;;;;;;1.95;0.60;;;8.20;99.90;;;;;;4980368;28;19925;-72
2021/11/20 09:17:56;;;;;;;2.05;0.43;;;8.20;99.90;;;;;;4981317;28;20054;-67
2021/11/20 09:20:28;;;;;;;3.90;0.43;;;8.20;99.90;;;;;;5000474;28;20108;-65
2021/11/20 09:22:55;;;;;;;2.00;0.77;;;8.20;99.90;;;;;;5011503;28;20505;-66
2021/11/20 09:25:41;;;;;;;1.50;0.63;;;8.30;99.90;;;;;;4984132;28;20045;-65
2021/11/20 09:28:30;;;;;;;1.80;0.60;;;8.30;99.90;;;;;;4992376;28;20492;-65
2021/11/20 09:31:01;;;;;;;1.05;0.70;;;8.30;99.90;;;;;;4982509;28;20057;-65
2021/11/20 09:33:30;;;;;;;2.38;0.80;;;8.30;99.90;;;;;;4998926;28;20373;-69
2021/11/20 09:35:58;;;;;;;2.58;0.75;;;8.30;99.90;;;;;;5014673;28;20050;-72
2021/11/20 09:38:49;;;;;;;1.45;0.90;;;8.30;99.90;;;;;;4974147;28;20042;-68
2021/11/20 09:41:23;;;;;;;3.03;0.95;;;8.30;99.90;;;;;;4995526;28;20065;-69
2021/11/20 09:43:57;;;;;;;4.82;0.52;;;8.30;99.90;;;;;;4986724;28;20444;-64
2021/11/20 09:46:36;;;;;;;2.08;0.70;;;8.30;99.90;;;;;;4979098;28;20116;-66
2021/11/20 09:49:18;;;;;;;2.87;0.40;;;8.30;99.90;;;;;;4997477;28;20473;-63
2021/11/20 09:51:49;;;;;;;9.77;1.77;;;8.30;99.90;;;;;;4994984;28;20046;-64
2021/11/20 09:54:32;;;;;;;6.75;0.95;;;8.20;99.90;;;;;;4983853;28;20038;-64
2021/11/20 09:57:24;;;;;;;8.13;1.30;;;8.20;99.90;;;;;;4978156;28;20042;-68
2021/11/20 09:59:57;;;;;;;3.08;0.60;;;8.20;99.90;;;;;;4979821;28;20050;-66
2021/11/20 10:02:49;;;;;;;5.45;1.38;;;8.30;99.90;;;;;;4981361;28;20046;-64
2021/11/20 10:05:26;;;;;;;3.42;0.52;;;8.20;99.90;;;;;;4980314;28;20046;-67
2021/11/20 10:08:02;;;;;;;4.43;2.55;;;8.30;99.90;;;;;;4982986;28;20400;-63
2021/11/20 10:10:38;;;;;;;3.10;0.60;;;8.30;99.90;;;;;;4978250;28;20046;-68
2021/11/20 10:13:11;;;;;;;4.25;1.30;;;8.30;99.90;;;;;;4983888;28;20437;-63
2021/11/20 10:15:54;;;;;;;8.82;1.65;;;8.30;99.90;;;;;;4981371;28;20185;-69
2021/11/20 10:18:30;;;;;;;2.60;1.52;;;8.30;99.90;;;;;;4979220;28;20048;-63
2021/11/20 10:21:09;;;;;;;4.50;0.88;;;8.30;99.90;;;;;;4983148;28;20081;-65
2021/11/20 10:23:40;;;;;;;6.10;0.98;;;8.30;99.90;;;;;;4982485;28;20050;-66
2021/11/20 10:26:13;;;;;;;4.50;1.20;;;8.30;99.90;;;;;;4981859;28;20046;-64
2021/11/20 10:29:02;;;;;;;5.90;1.63;;;8.40;99.90;;;;;;4983175;28;20054;-64
2021/11/20 10:31:32;;;;;;;11.90;1.23;;;8.40;99.90;;;;;;4982501;28;20112;-67
2021/11/20 10:34:02;;;;;;;3.28;1.55;;;8.40;99.90;;;;;;4979731;28;20070;-69
2021/11/20 10:36:58;;;;;;;4.25;0.85;;;8.40;99.90;;;;;;4980379;28;20046;-65
2021/11/20 10:40:01;;;;;;;5.00;1.45;;;8.40;99.90;;;;;;4981119;28;20116;-63
2021/11/20 10:42:35;;;;;;;4.13;1.52;;;8.40;99.90;;;;;;4983544;28;20049;-63
2021/11/20 10:45:31;;;;;;;8.48;1.80;;;8.40;99.90;;;;;;4983020;28;20409;-70
2021/11/20 10:48:13;;;;;;;4.57;2.22;;;8.40;99.90;;;;;;4972294;28;20423;-67
2021/11/20 10:50:45;;;;;;;11.93;2.53;;;8.30;99.90;;;;;;4981871;28;20039;-64
2021/11/20 10:53:30;;;;;;;10.75;1.80;;;8.30;99.90;;;;;;4978027;28;20042;-66
2021/11/20 10:56:15;;;;;;;9.15;2.03;;;8.20;99.90;;;;;;4982787;28;20050;-65
2021/11/20 10:59:20;;;;;;;5.65;1.38;;;8.20;99.90;;;;;;4976132;28;20049;-68
2021/11/20 11:02:06;;;;;;;9.38;1.70;;;8.20;99.90;;;;;;4981430;28;20061;-69
2021/11/20 11:04:40;;;;;;;9.13;1.80;;;8.20;99.90;;;;;;4982712;28;20503;-67
2021/11/20 11:07:16;;;;;;;6.82;2.95;;;8.20;99.90;;;;;;4983778;28;20137;-68
2021/11/20 11:09:54;;;;;;;12.02;3.17;;;8.20;99.90;;;;;;4986757;28;20104;-64
2021/11/20 11:12:43;;;;;;;8.35;2.25;;;8.20;99.90;;;;;;4982530;28;20054;-69
2021/11/20 11:15:34;;;;;;;6.78;4.18;;;8.10;99.90;;;;;;4976795;28;20141;-67
2021/11/20 11:18:20;;;;;;;10.98;2.22;;;8.20;99.90;;;;;;4977273;28;20417;-65
2021/11/20 11:20:59;;;;;;;12.70;3.85;;;8.10;99.90;;;;;;4983510;28;20054;-66
2021/11/20 11:23:59;;;;;;;10.02;2.85;;;8.10;99.90;;;;;;4984517;28;20042;-64
2021/11/20 11:26:28;;;;;;;14.18;3.20;;;8.20;99.90;;;;;;4992317;28;20105;-64
2021/11/20 11:29:06;;;;;;;8.77;2.35;;;8.10;99.90;;;;;;4984451;28;20066;-64
2021/11/20 11:31:38;;;;;;;12.90;4.03;;;8.20;99.90;;;;;;4987720;28;20046;-66
2021/11/20 11:34:31;;;;;;;12.27;2.45;;;8.10;99.90;;;;;;4984194;28;20505;-63
2021/11/20 11:37:15;;;;;;;14.75;5.00;;;8.20;99.90;;;;;;4986146;28;20571;-64
2021/11/20 11:39:52;;;;;;;8.43;1.80;;;8.20;99.90;;;;;;4986060;28;20046;-69
2021/11/20 11:42:37;;;;;;;7.85;2.72;;;8.20;99.90;;;;;;4982607;28;20046;-67
2021/11/20 11:45:28;;;;;;;14.20;2.72;;;8.10;99.90;;;;;;4987045;28;20983;-69
2021/11/20 11:48:10;;;;;;;10.65;2.67;;;8.20;99.90;;;;;;4985424;28;20185;-64
2021/11/20 11:50:59;;;;;;;11.98;2.38;;;8.10;99.90;;;;;;4986043;28;20055;-66
2021/11/20 11:53:49;;;;;;;13.02;3.70;;;8.10;99.90;;;;;;5015415;28;20364;-66
2021/11/20 11:56:45;;;;;;;11.88;2.53;;;8.10;99.90;;;;;;4998842;28;20480;-66
2021/11/20 11:59:36;;;;;;;8.25;3.33;;;8.10;99.90;;;;;;5002144;28;20481;-67
2021/11/20 12:02:44;;;;;;;17.45;2.47;;;8.10;99.90;;;;;;4983889;28;20081;-67
2021/11/20 12:05:33;;;;;;;9.90;4.60;;;8.20;99.90;;;;;;4996506;28;20312;-66
2021/11/20 12:08:13;;;;;;;16.88;5.65;;;8.20;99.90;;;;;;4985887;28;20038;-66
2021/11/20 12:11:01;;;;;;;7.60;3.90;;;8.10;99.90;;;;;;4995350;28;20396;-65
2021/11/20 12:13:54;;;;;;;9.18;2.60;;;8.10;99.90;;;;;;4983344;28;20051;-65
2021/11/20 12:16:22;;;;;;;12.20;2.83;;;8.10;99.90;;;;;;4982690;28;20046;-63
2021/11/20 12:19:18;;;;;;;8.95;2.65;;;8.10;99.90;;;;;;5016144;28;20378;-68
2021/11/20 12:21:58;;;;;;;5.88;2.10;;;8.10;99.90;;;;;;4971515;28;20153;-73
2021/11/20 12:24:57;;;;;;;13.02;3.72;;;8.10;99.90;;;;;;4981591;28;20050;-64
2021/11/20 12:28:02;;;;;;;7.80;2.78;;;8.10;99.90;;;;;;5006793;28;20133;-66
2021/11/20 12:30:54;;;;;;;11.10;3.92;;;8.10;99.90;;;;;;4978314;28;20059;-66
2021/11/20 12:33:34;;;;;;;14.88;3.38;;;8.10;99.90;;;;;;4999966;28;20377;-68
2021/11/20 12:36:15;;;;;;;13.32;2.30;;;8.10;99.90;;;;;;4996708;28;20050;-63
2021/11/20 12:39:19;;;;;;;15.23;2.92;;;8.10;99.90;;;;;;4982410;28;20051;-68
2021/11/20 12:42:06;;;;;;;9.52;2.78;;;8.10;99.90;;;;;;4993402;28;20053;-66
2021/11/20 12:44:36;;;;;;;12.88;2.65;;;8.10;99.90;;;;;;4983097;28;20050;-65
2021/11/20 12:47:35;;;;;;;19.80;5.78;;;8.10;99.90;;;;;;4983272;28;20108;-63
2021/11/20 12:50:03;;;;;;;15.02;3.08;;;8.10;99.90;;;;;;4992653;28;20057;-68
2021/11/20 12:52:56;;;;;;;13.88;3.45;;;8.10;99.90;;;;;;4993136;28;20076;-63
2021/11/20 12:55:44;;;;;;;12.55;2.28;;;8.10;99.90;;;;;;4982466;28;20508;-71
2021/11/20 12:58:22;;;;;;;13.98;5.28;;;8.10;99.90;;;;;;4993042;28;20476;-67
2021/11/20 13:00:54;;;;;;;23.38;4.18;;;8.00;99.90;;;;;;4981803;28;20062;-66
2021/11/20 13:03:24;;;;;;;15.65;2.53;;;8.10;99.90;;;;;;4983452;28;20412;-64
2021/11/20 13:06:06;;;;;;;14.55;3.75;;;8.10;99.90;;;;;;4983894;28;20077;-70
2021/11/20 13:08:40;;;;;;;11.88;3.92;;;8.10;99.90;;;;;;5012584;28;20048;-64
2021/11/20 13:11:31;;;;;;;22.77;3.78;;;8.10;99.90;;;;;;4986576;28;20050;-71
2021/11/20 13:14:06;;;;;;;17.57;3.03;;;8.10;99.90;;;;;;4987742;28;20077;-64
2021/11/20 13:17:08;;;;;;;15.45;2.78;;;8.10;99.90;;;;;;4982350;28;20085;-64
2021/11/20 13:20:19;;;;;;;16.13;4.90;;;8.00;99.90;;;;;;4979696;28;20054;-64
2021/11/20 13:22:48;;;;;;;18.63;4.35;;;8.10;99.90;;;;;;4983054;28;20046;-70
2021/11/20 13:25:22;;;;;;;21.70;5.65;;;8.00;99.90;;;;;;4981626;28;20042;-69
2021/11/20 13:27:53;;;;;;;23.90;5.53;;;8.00;99.90;;;;;;4985525;28;20050;-67
2021/11/20 13:30:23;;;;;;;17.95;4.47;;;8.00;99.90;;;;;;4980376;28;20056;-66
2021/11/20 13:32:53;;;;;;;22.98;5.57;;;8.00;99.90;;;;;;4985231;28;20050;-67
2021/11/20 13:35:25;;;;;;;14.70;4.65;;;8.00;99.90;;;;;;4981919;28;20045;-69
2021/11/20 13:37:59;;;;;;;17.23;5.43;;;8.00;99.90;;;;;;4984173;28;20104;-63
2021/11/20 13:40:32;;;;;;;23.80;4.88;;;8.00;99.90;;;;;;4981170;28;20884;-63
2021/11/20 13:42:59;;;;;;;17.08;3.38;;;8.00;99.90;;;;;;4996212;28;20046;-69
2021/11/20 13:45:29;;;;;;;22.33;4.50;;;8.00;99.90;;;;;;4984679;28;20634;-63
2021/11/20 13:47:56;;;;;;;17.17;3.67;;;8.10;99.90;;;;;;4982158;28;20384;-69
2021/11/20 13:50:34;;;;;;;19.80;5.10;;;8.10;99.90;;;;;;4976792;28;20104;-68